Time;durP1;ratioP1;P1;durP2;ratioP2;P2;SDS_P1;SDS_P2;PMS_P1;PMS_P2;Temp;Humidity;BMP_temperature;BMP_pressure;BME280_temperature;BME280_humidity;BME280_pressure;Samples;Min_cycle;Max_cycle;Signal;HPM_P1;HPM_P2
2022/10/20 00:01:11;;;;;;;;;;;16.30;99.90;;;;;;5040398;28;20015;-82
2022/10/20 00:03:36;;;;;;;;;;;16.30;99.90;;;;;;5042138;28;19913;-83
2022/10/20 00:06:09;;;;;;;;;;;16.30;99.90;;;;;;5040337;28;20406;-82
2022/10/20 00:08:35;;;;;;;;;;;16.30;99.90;;;;;;5050040;28;19970;-83
2022/10/20 00:11:00;;;;;;;;;;;16.30;99.90;;;;;;5047838;28;20095;-80
2022/10/20 00:13:26;;;;;;;;;;;16.40;99.90;;;;;;5042454;28;20390;-82
2022/10/20 00:15:52;;;;;;;;;;;16.30;99.90;;;;;;5043344;28;19984;-83
2022/10/20 00:18:18;;;;;;;;;;;16.30;99.90;;;;;;5043347;28;19920;-82
2022/10/20 00:20:43;;;;;;;;;;;16.30;99.90;;;;;;5047574;28;19970;-82
2022/10/20 00:23:09;;;;;;;;;;;16.30;99.90;;;;;;5042273;28;19912;-82
2022/10/20 00:25:35;;;;;;;;;;;16.30;99.90;;;;;;5057200;28;19917;-82
2022/10/20 00:28:00;;;;;;;;;;;16.30;99.90;;;;;;5040850;28;19928;-83
2022/10/20 00:30:26;;;;;;;;;;;16.20;99.90;;;;;;5042156;28;20001;-83
2022/10/20 00:32:51;;;;;;;;;;;16.30;99.90;;;;;;5043027;28;19976;-83
2022/10/20 00:35:17;;;;;;;;;;;16.30;99.90;;;;;;5041645;28;19920;-81
2022/10/20 00:37:42;;;;;;;;;;;16.20;99.90;;;;;;5043099;28;19927;-82
2022/10/20 00:40:08;;;;;;;;;;;16.20;99.90;;;;;;5041593;28;19916;-82
2022/10/20 00:42:34;;;;;;;;;;;16.20;99.90;;;;;;5041742;28;19929;-81
2022/10/20 00:44:59;;;;;;;;;;;16.20;99.90;;;;;;5042346;28;19920;-82
2022/10/20 00:47:28;;;;;;;;;;;16.10;99.90;;;;;;5041052;28;19972;-83
2022/10/20 00:50:04;;;;;;;;;;;16.10;99.90;;;;;;5042416;28;19916;-82
2022/10/20 00:52:30;;;;;;;;;;;16.10;99.90;;;;;;5049349;28;19927;-82
2022/10/20 00:54:55;;;;;;;;;;;16.10;99.90;;;;;;5066435;28;19924;-82
2022/10/20 00:57:21;;;;;;;;;;;16.10;99.90;;;;;;5058931;28;20003;-83
2022/10/20 00:59:47;;;;;;;;;;;16.10;99.90;;;;;;5043224;28;19925;-83
2022/10/20 01:02:13;;;;;;;;;;;16.10;99.90;;;;;;5046559;28;20403;-82
2022/10/20 01:04:38;;;;;;;;;;;16.20;99.90;;;;;;5046282;28;20403;-82
2022/10/20 01:07:04;;;;;;;;;;;16.20;99.90;;;;;;5043753;28;20008;-81
2022/10/20 01:09:30;;;;;;;;;;;16.10;99.90;;;;;;5045824;28;19917;-82
2022/10/20 01:11:55;;;;;;;;;;;16.20;99.90;;;;;;5045354;28;20266;-81
2022/10/20 01:14:29;;;;;;;;;;;16.10;99.90;;;;;;5048293;28;19920;-81
2022/10/20 01:17:01;;;;;;;;;;;16.10;99.90;;;;;;5047548;28;19928;-82
2022/10/20 01:19:35;;;;;;;;;;;16.20;99.90;;;;;;5042487;28;20264;-83
2022/10/20 01:22:13;;;;;;;;;;;16.20;99.90;;;;;;5045729;28;19921;-83
2022/10/20 01:24:45;;;;;;;;;;;16.20;99.90;;;;;;5045243;28;19940;-82
2022/10/20 01:27:26;;;;;;;;;;;16.20;99.90;;;;;;5050909;28;19920;-82
2022/10/20 01:30:01;;;;;;;;;;;16.20;99.90;;;;;;5044934;28;19961;-82
2022/10/20 01:32:32;;;;;;;;;;;16.20;99.90;;;;;;5040193;28;19942;-81
2022/10/20 01:34:58;;;;;;;;;;;16.20;99.90;;;;;;5060030;28;20308;-83
2022/10/20 01:37:29;;;;;;;;;;;16.20;99.90;;;;;;5060171;28;19982;-83
2022/10/20 01:40:13;;;;;;;;;;;16.20;99.90;;;;;;5044326;28;19970;-82
2022/10/20 01:42:39;;;;;;;;;;;16.20;99.90;;;;;;5060070;28;19921;-82
2022/10/20 01:45:06;;;;;;;;;;;16.20;99.90;;;;;;5043954;28;19982;-83
2022/10/20 01:47:33;;;;;;;;;;;16.20;99.90;;;;;;5042928;28;20120;-82
2022/10/20 01:49:59;;;;;;;;;;;16.20;99.90;;;;;;5043688;28;19917;-83
2022/10/20 01:52:26;;;;;;;;;;;16.20;99.90;;;;;;5043301;28;20023;-83
2022/10/20 01:54:52;;;;;;;;;;;16.20;99.90;;;;;;5044570;28;19928;-82
2022/10/20 01:57:17;;;;;;;;;;;16.10;99.90;;;;;;5044308;28;19921;-83
2022/10/20 01:59:57;;;;;;;;;;;16.10;99.90;;;;;;5041431;28;20388;-82
2022/10/20 02:02:31;;;;;;;;;;;16.10;99.90;;;;;;5063063;28;19916;-85
2022/10/20 02:04:57;;;;;;;;;;;16.10;99.90;;;;;;5042698;28;19923;-83
2022/10/20 02:07:26;;;;;;;;;;;16.10;99.90;;;;;;5045426;28;20720;-83
2022/10/20 02:09:53;;;;;;;;;;;16.10;99.90;;;;;;5045370;28;20036;-83
2022/10/20 02:12:22;;;;;;;;;;;16.10;99.90;;;;;;5046021;28;19924;-83
2022/10/20 02:14:48;;;;;;;;;;;16.10;99.90;;;;;;5030247;28;19924;-83
2022/10/20 02:17:15;;;;;;;;;;;16.10;99.90;;;;;;5041479;28;19982;-83
2022/10/20 02:19:42;;;;;;;;;;;16.10;99.90;;;;;;5062663;28;20024;-83
2022/10/20 02:22:08;;;;;;;;;;;16.10;99.90;;;;;;5049100;28;19944;-84
2022/10/20 02:24:39;;;;;;;;;;;16.10;99.90;;;;;;5059449;28;20372;-83
2022/10/20 02:27:25;;;;;;;;;;;16.10;99.90;;;;;;5044821;28;20343;-83
2022/10/20 02:29:56;;;;;;;;;;;16.10;99.90;;;;;;5042474;28;19916;-83
2022/10/20 02:32:23;;;;;;;;;;;16.00;99.90;;;;;;5043454;28;19913;-82
2022/10/20 02:34:48;;;;;;;;;;;16.00;99.90;;;;;;5043195;28;19951;-83
2022/10/20 02:37:14;;;;;;;;;;;16.00;99.90;;;;;;5042903;28;19925;-83
2022/10/20 02:39:39;;;;;;;;;;;16.00;99.90;;;;;;5042942;28;19916;-82
2022/10/20 02:42:05;;;;;;;;;;;16.00;99.90;;;;;;5041803;28;20298;-82
2022/10/20 02:44:31;;;;;;;;;;;16.00;99.90;;;;;;5043405;28;19916;-81
2022/10/20 02:46:56;;;;;;;;;;;16.00;99.90;;;;;;5040519;28;20003;-82
2022/10/20 02:49:23;;;;;;;;;;;16.00;99.90;;;;;;5045884;28;20298;-83
2022/10/20 02:51:49;;;;;;;;;;;16.00;99.90;;;;;;5039113;28;20374;-82
2022/10/20 02:54:15;;;;;;;;;;;16.10;99.90;;;;;;5043898;28;19925;-82
2022/10/20 02:56:40;;;;;;;;;;;16.10;99.90;;;;;;5044542;28;20075;-84
2022/10/20 02:59:06;;;;;;;;;;;16.00;99.90;;;;;;5057636;28;19913;-83
2022/10/20 03:01:31;;;;;;;;;;;16.00;99.90;;;;;;5043114;28;20106;-80
2022/10/20 03:03:58;;;;;;;;;;;16.10;99.90;;;;;;5041921;28;20127;-82
2022/10/20 03:06:24;;;;;;;;;;;16.10;99.90;;;;;;5040871;28;19924;-82
2022/10/20 03:08:50;;;;;;;;;;;16.10;99.90;;;;;;5043582;28;19917;-83
2022/10/20 03:11:15;;;;;;;;;;;16.10;99.90;;;;;;5040694;28;20003;-82
2022/10/20 03:13:41;;;;;;;;;;;16.10;99.90;;;;;;5057109;28;20308;-82
2022/10/20 03:16:06;;;;;;;;;;;16.10;99.90;;;;;;5065598;28;20018;-82
2022/10/20 03:18:32;;;;;;;;;;;16.00;99.90;;;;;;5042859;28;20283;-82
2022/10/20 03:20:57;;;;;;;;;;;16.00;99.90;;;;;;5043099;28;20298;-83
2022/10/20 03:23:23;;;;;;;;;;;16.00;99.90;;;;;;5042748;28;19963;-82
2022/10/20 03:25:48;;;;;;;;;;;16.00;99.90;;;;;;5040934;28;19917;-81
2022/10/20 03:28:14;;;;;;;;;;;16.00;99.90;;;;;;5042496;28;20037;-82
2022/10/20 03:30:40;;;;;;;;;;;16.00;99.90;;;;;;5041831;28;19966;-82
2022/10/20 03:33:05;;;;;;;;;;;16.00;99.90;;;;;;5041494;28;20346;-82
2022/10/20 03:35:30;;;;;;;;;;;16.00;99.90;;;;;;5043088;28;20039;-82
2022/10/20 03:37:56;;;;;;;;;;;16.00;99.90;;;;;;5056296;28;19913;-81
2022/10/20 03:40:21;;;;;;;;;;;16.10;99.90;;;;;;5040007;28;20406;-82
2022/10/20 03:42:47;;;;;;;;;;;16.10;99.90;;;;;;5042575;28;20091;-82
2022/10/20 03:45:12;;;;;;;;;;;16.10;99.90;;;;;;5043064;28;20218;-82
2022/10/20 03:47:38;;;;;;;;;;;16.10;99.90;;;;;;5039918;28;20275;-82
2022/10/20 03:50:04;;;;;;;;;;;16.10;99.90;;;;;;5039509;28;19959;-81
2022/10/20 03:52:29;;;;;;;;;;;16.10;99.90;;;;;;5038064;28;19920;-82
2022/10/20 03:54:55;;;;;;;;;;;16.10;99.90;;;;;;5022312;28;19921;-82
2022/10/20 03:57:20;;;;;;;;;;;16.10;99.90;;;;;;5022382;28;19917;-80
2022/10/20 03:59:46;;;;;;;;;;;16.10;99.90;;;;;;5039790;28;19923;-81
2022/10/20 04:02:32;;;;;;;;;;;16.20;99.90;;;;;;5057882;28;19985;-81
2022/10/20 04:04:58;;;;;;;;;;;16.20;99.90;;;;;;5044213;28;19923;-82
2022/10/20 04:07:23;;;;;;;;;;;16.20;99.90;;;;;;5041574;28;20004;-82
2022/10/20 04:09:49;;;;;;;;;;;16.20;99.90;;;;;;5045727;28;19959;-81
2022/10/20 04:12:14;;;;;;;;;;;16.20;99.90;;;;;;5042042;28;20185;-82
2022/10/20 04:14:40;;;;;;;;;;;16.20;99.90;;;;;;5061795;28;20019;-82
2022/10/20 04:17:05;;;;;;;;;;;16.20;99.90;;;;;;5063118;28;20441;-82
2022/10/20 04:19:31;;;;;;;;;;;16.30;99.90;;;;;;5041141;28;19943;-81
2022/10/20 04:21:56;;;;;;;;;;;16.30;99.90;;;;;;5057577;28;20427;-82
2022/10/20 04:24:22;;;;;;;;;;;16.20;99.90;;;;;;5043305;28;19916;-82
2022/10/20 04:26:47;;;;;;;;;;;16.30;99.90;;;;;;5045618;28;20291;-82
2022/10/20 04:29:13;;;;;;;;;;;16.30;99.90;;;;;;5043978;28;19920;-81
2022/10/20 04:31:38;;;;;;;;;;;16.30;99.90;;;;;;5045825;28;20015;-81
2022/10/20 04:34:04;;;;;;;;;;;16.30;99.90;;;;;;5066062;28;19979;-81
2022/10/20 04:36:29;;;;;;;;;;;16.30;99.90;;;;;;5055661;28;19913;-81
2022/10/20 04:38:55;;;;;;;;;;;16.30;99.90;;;;;;5048131;28;19924;-82
2022/10/20 04:41:20;;;;;;;;;;;16.30;99.90;;;;;;5048310;28;19924;-81
2022/10/20 04:43:50;;;;;;;;;;;16.20;99.90;;;;;;5047854;28;20670;-81
2022/10/20 04:46:16;;;;;;;;;;;16.20;99.90;;;;;;5049502;28;20507;-81
2022/10/20 04:48:43;;;;;;;;;;;16.20;99.90;;;;;;5060591;28;20239;-81
2022/10/20 04:51:09;;;;;;;;;;;16.20;99.90;;;;;;5072301;28;20398;-80
2022/10/20 04:53:35;;;;;;;;;;;16.10;99.90;;;;;;5067384;28;19956;-82
2022/10/20 04:56:01;;;;;;;;;;;16.10;99.90;;;;;;5065986;28;19916;-81
2022/10/20 04:58:26;;;;;;;;;;;16.10;99.90;;;;;;5050525;28;20054;-80
2022/10/20 05:00:52;;;;;;;;;;;16.10;99.90;;;;;;5053518;28;19959;-81
2022/10/20 05:03:18;;;;;;;;;;;16.00;99.90;;;;;;5068622;28;19916;-81
2022/10/20 05:05:44;;;;;;;;;;;16.00;99.90;;;;;;5062268;28;20195;-81
2022/10/20 05:08:09;;;;;;;;;;;16.00;99.90;;;;;;5064330;28;19920;-81
2022/10/20 05:10:35;;;;;;;;;;;16.00;99.90;;;;;;5049199;28;20066;-81
2022/10/20 05:13:00;;;;;;;;;;;16.00;99.90;;;;;;5056153;28;19920;-81
2022/10/20 05:15:26;;;;;;;;;;;16.10;99.90;;;;;;5049089;28;19938;-81
2022/10/20 05:17:51;;;;;;;;;;;16.10;99.90;;;;;;5044592;28;20100;-80
2022/10/20 05:20:17;;;;;;;;;;;16.10;99.90;;;;;;5047109;28;19927;-80
2022/10/20 05:22:42;;;;;;;;;;;16.20;99.90;;;;;;5031845;28;20327;-80
2022/10/20 05:25:08;;;;;;;;;;;16.20;99.90;;;;;;5039202;28;20407;-81
2022/10/20 05:27:33;;;;;;;;;;;16.20;99.90;;;;;;5047897;28;20191;-81
2022/10/20 05:30:01;;;;;;;;;;;16.20;99.90;;;;;;5045424;28;19991;-81
2022/10/20 05:32:27;;;;;;;;;;;16.30;99.90;;;;;;5057853;28;19968;-81
2022/10/20 05:34:53;;;;;;;;;;;16.30;99.90;;;;;;5052749;28;19924;-81
2022/10/20 05:37:18;;;;;;;;;;;16.30;99.90;;;;;;5055224;28;19931;-81
2022/10/20 05:39:44;;;;;;;;;;;16.30;99.90;;;;;;5065642;28;19958;-81
2022/10/20 05:42:09;;;;;;;;;;;16.20;99.90;;;;;;5062049;28;20145;-81
2022/10/20 05:44:35;;;;;;;;;;;16.30;99.90;;;;;;5045044;28;19917;-82
2022/10/20 05:47:00;;;;;;;;;;;16.20;99.90;;;;;;5046953;28;20229;-81
2022/10/20 05:49:26;;;;;;;;;;;16.20;99.90;;;;;;5046039;28;19979;-82
2022/10/20 05:51:51;;;;;;;;;;;16.30;99.90;;;;;;5045921;28;19960;-82
2022/10/20 05:54:17;;;;;;;;;;;16.30;99.90;;;;;;5046681;28;19920;-82
2022/10/20 05:56:42;;;;;;;;;;;16.20;99.90;;;;;;5043521;28;19924;-83
2022/10/20 05:59:08;;;;;;;;;;;16.20;99.90;;;;;;5050562;28;19950;-82
2022/10/20 06:02:07;;;;;;;;;;;16.10;99.90;;;;;;5048104;28;19916;-83
2022/10/20 06:04:27;;;;;;;;;;;16.10;99.90;;;;;;5042347;28;19917;-82
2022/10/20 06:06:52;;;;;;;;;;;16.10;99.90;;;;;;5047346;28;20315;-83
2022/10/20 06:09:19;;;;;;;;;;;16.00;99.90;;;;;;5045869;28;19917;-83
2022/10/20 06:11:44;;;;;;;;;;;16.00;99.90;;;;;;5045072;28;19913;-82
2022/10/20 06:14:10;;;;;;;;;;;16.00;99.90;;;;;;5055269;28;20031;-82
2022/10/20 06:16:36;;;;;;;;;;;16.00;99.90;;;;;;5044043;28;20007;-82
2022/10/20 06:19:01;;;;;;;;;;;16.00;99.90;;;;;;5044145;28;19917;-82
2022/10/20 06:21:28;;;;;;;;;;;16.00;99.90;;;;;;5036110;28;19917;-81
2022/10/20 06:23:54;;;;;;;;;;;16.00;99.90;;;;;;5040395;28;19916;-81
2022/10/20 06:26:21;;;;;;;;;;;15.90;99.90;;;;;;5043890;28;19978;-81
2022/10/20 06:28:47;;;;;;;;;;;15.90;99.90;;;;;;5039188;28;20352;-80
2022/10/20 06:31:14;;;;;;;;;;;15.90;99.90;;;;;;5042251;28;19917;-81
2022/10/20 06:33:40;;;;;;;;;;;15.90;99.90;;;;;;5055885;28;20335;-81
2022/10/20 06:36:05;;;;;;;;;;;15.80;99.90;;;;;;5040776;28;19975;-81
2022/10/20 06:38:31;;;;;;;;;;;15.80;99.90;;;;;;5042755;28;19917;-81
2022/10/20 06:40:59;;;;;;;;;;;15.80;99.90;;;;;;5041061;28;19946;-81
2022/10/20 06:43:26;;;;;;;;;;;15.80;99.90;;;;;;5043318;28;19916;-82
2022/10/20 06:45:58;;;;;;;;;;;15.90;99.90;;;;;;5043400;28;20105;-81
2022/10/20 06:48:24;;;;;;;;;;;15.80;99.90;;;;;;5047973;28;19928;-81
2022/10/20 06:50:54;;;;;;;;;;;15.80;99.90;;;;;;5043829;28;19917;-81
2022/10/20 06:53:19;;;;;;;;;;;15.80;99.90;;;;;;5042032;28;20364;-81
2022/10/20 06:55:53;;;;;;;;;;;15.80;99.90;;;;;;5043358;28;19965;-81
2022/10/20 06:58:19;;;;;;;;;;;15.80;99.90;;;;;;5041614;28;20403;-81
2022/10/20 07:00:44;;;;;;;;;;;15.80;99.90;;;;;;5039307;28;20020;-81
2022/10/20 07:03:10;;;;;;;;;;;15.80;99.90;;;;;;5052744;28;19923;-81
2022/10/20 07:05:35;;;;;;;;;;;15.90;99.90;;;;;;5052304;28;20407;-81
2022/10/20 07:08:01;;;;;;;;;;;15.90;99.90;;;;;;5037094;28;19917;-81
2022/10/20 07:10:26;;;;;;;;;;;15.90;99.90;;;;;;5031171;28;20453;-80
2022/10/20 07:12:51;;;;;;;;;;;15.90;99.90;;;;;;5032234;28;20091;-81
2022/10/20 07:15:17;;;;;;;;;;;15.90;99.90;;;;;;5031149;28;20407;-81
2022/10/20 07:17:42;;;;;;;;;;;16.00;99.90;;;;;;5033553;28;21333;-81
2022/10/20 07:20:08;;;;;;;;;;;16.10;99.90;;;;;;5035517;28;19917;-80
2022/10/20 07:22:35;;;;;;;;;;;16.10;99.90;;;;;;5033533;28;19939;-81
2022/10/20 07:25:05;;;;;;;;;;;16.10;99.90;;;;;;5042732;28;20325;-78
2022/10/20 07:27:30;;;;;;;;;;;16.10;99.90;;;;;;5030477;28;19956;-80
2022/10/20 07:29:56;;;;;;;;;;;16.10;99.90;;;;;;5035002;28;20449;-79
2022/10/20 07:32:21;;;;;;;;;;;16.10;99.90;;;;;;5042804;28;20073;-81
2022/10/20 07:34:47;;;;;;;;;;;16.10;99.90;;;;;;5037407;28;19931;-79
2022/10/20 07:37:12;;;;;;;;;;;16.10;99.90;;;;;;5040686;28;20019;-79
2022/10/20 07:39:38;;;;;;;;;;;16.20;99.90;;;;;;5035899;28;20038;-79
2022/10/20 07:42:03;;;;;;;;;;;16.20;99.90;;;;;;5042161;28;20030;-80
2022/10/20 07:44:29;;;;;;;;;;;16.20;99.90;;;;;;5021626;28;20389;-79
2022/10/20 07:46:54;;;;;;;;;;;16.20;99.90;;;;;;5038247;28;20039;-80
2022/10/20 07:49:20;;;;;;;;;;;16.30;99.90;;;;;;5037891;28;19955;-79
2022/10/20 07:51:45;;;;;;;;;;;16.30;99.90;;;;;;5037452;28;19948;-79
2022/10/20 07:54:11;;;;;;;;;;;16.30;99.90;;;;;;5039512;28;19984;-79
2022/10/20 07:56:38;;;;;;;;;;;16.30;99.90;;;;;;5040362;28;20375;-79
2022/10/20 07:59:04;;;;;;;;;;;16.30;99.90;;;;;;5039199;28;19913;-79
2022/10/20 08:01:29;;;;;;;;;;;16.30;99.90;;;;;;5056675;28;20057;-79
2022/10/20 08:03:55;;;;;;;;;;;16.30;99.90;;;;;;5024555;28;19917;-79
2022/10/20 08:06:20;;;;;;;;;;;16.30;99.90;;;;;;5042479;28;19999;-78
2022/10/20 08:08:46;;;;;;;;;;;16.40;99.90;;;;;;5042663;28;19940;-80
2022/10/20 08:11:12;;;;;;;;;;;16.50;99.90;;;;;;5037432;28;19917;-78
2022/10/20 08:13:39;;;;;;;;;;;16.60;99.90;;;;;;5039880;28;20423;-77
2022/10/20 08:16:05;;;;;;;;;;;16.60;99.90;;;;;;5017412;28;19921;-76
2022/10/20 08:18:31;;;;;;;;;;;16.70;99.90;;;;;;5026478;28;20042;-77
2022/10/20 08:21:11;;;;;;;;;;;16.80;99.90;;;;;;5038276;28;20509;-78
2022/10/20 08:23:37;;;;;;;;;;;16.80;99.90;;;;;;5038986;28;19924;-78
2022/10/20 08:26:02;;;;;;;;;;;16.90;99.90;;;;;;5021978;28;20015;-77
2022/10/20 08:28:27;;;;;;;;;;;17.00;99.90;;;;;;5038056;28;19921;-77
2022/10/20 08:30:53;;;;;;;;;;;17.00;99.90;;;;;;5038353;28;20203;-77
2022/10/20 08:33:19;;;;;;;;;;;17.00;99.90;;;;;;5041357;28;19952;-78
2022/10/20 08:35:44;;;;;;;;;;;16.90;99.90;;;;;;5041003;28;19925;-77
2022/10/20 08:38:10;;;;;;;;;;;16.90;99.90;;;;;;5040327;28;19939;-77
2022/10/20 08:40:36;;;;;;;;;;;17.00;99.90;;;;;;5041433;28;20411;-78
2022/10/20 08:43:01;;;;;;;;;;;17.20;99.90;;;;;;5041490;28;19925;-78
2022/10/20 08:45:28;;;;;;;;;;;17.20;99.90;;;;;;5042196;28;19942;-77
2022/10/20 08:47:57;;;;;;;;;;;17.30;99.90;;;;;;5039646;28;20095;-77
2022/10/20 08:50:26;;;;;;;;;;;17.40;99.90;;;;;;5038686;28;19917;-77
2022/10/20 08:52:55;;;;;;;;;;;17.40;99.90;;;;;;5038305;28;20015;-77
2022/10/20 08:55:26;;;;;;;;;;;17.40;99.90;;;;;;5039344;28;19929;-77
2022/10/20 08:57:52;;;;;;;;;;;17.30;99.90;;;;;;5035632;28;20249;-77
2022/10/20 09:00:19;;;;;;;;;;;17.30;99.90;;;;;;5032937;28;19957;-77
2022/10/20 09:02:46;;;;;;;;;;;17.30;99.90;;;;;;5041134;28;19956;-77
2022/10/20 09:05:13;;;;;;;;;;;17.20;99.90;;;;;;5036718;28;19913;-76
2022/10/20 09:07:38;;;;;;;;;;;17.00;99.90;;;;;;5027307;28;19956;-76
2022/10/20 09:10:23;;;;;;;;;;;17.00;99.90;;;;;;5031253;28;20012;-79
2022/10/20 09:12:48;;;;;;;;;;;16.90;99.90;;;;;;5032963;28;20008;-77
2022/10/20 09:15:15;;;;;;;;;;;16.70;99.90;;;;;;5038803;28;19951;-76
2022/10/20 09:17:42;;;;;;;;;;;16.70;99.90;;;;;;5059362;28;20037;-76
2022/10/20 09:20:16;;;;;;;;;;;16.60;99.90;;;;;;5044278;28;20308;-76
2022/10/20 09:22:41;;;;;;;;;;;16.50;99.90;;;;;;5043719;28;19913;-76
2022/10/20 09:25:11;;;;;;;;;;;16.50;99.90;;;;;;5045191;28;19921;-76
2022/10/20 09:27:40;;;;;;;;;;;16.40;99.90;;;;;;5044751;28;19940;-78
2022/10/20 09:30:13;;;;;;;;;;;16.40;99.90;;;;;;5042894;28;20015;-75
2022/10/20 09:32:39;;;;;;;;;;;16.40;99.90;;;;;;5043567;28;19921;-78
2022/10/20 09:35:11;;;;;;;;;;;16.40;99.90;;;;;;5044701;28;19924;-77
2022/10/20 09:37:36;;;;;;;;;;;16.50;99.90;;;;;;5043850;28;19912;-77
2022/10/20 09:40:02;;;;;;;;;;;16.80;99.90;;;;;;5042150;28;19958;-76
2022/10/20 09:42:30;;;;;;;;;;;17.40;99.90;;;;;;5042856;28;19925;-77
2022/10/20 09:44:57;;;;;;;;;;;18.20;99.90;;;;;;5042399;28;20295;-78
2022/10/20 09:47:23;;;;;;;;;;;19.50;99.90;;;;;;5043881;28;20007;-77
2022/10/20 09:49:55;;;;;;;;;;;22.10;99.90;;;;;;5056925;28;19999;-77
2022/10/20 09:52:22;;;;;;;;;;;23.60;99.90;;;;;;5053053;28;19924;-77
2022/10/20 09:54:54;;;;;;;;;;;24.20;99.90;;;;;;5041537;28;20170;-77
2022/10/20 09:57:21;;;;;;;;;;;23.70;99.90;;;;;;5043442;28;19920;-78
2022/10/20 09:59:51;;;;;;;;;;;22.80;99.90;;;;;;5042603;28;20283;-76
2022/10/20 10:02:19;;;;;;;;;;;22.00;99.90;;;;;;5042852;28;20284;-77
2022/10/20 10:04:46;;;;;;;;;;;21.10;99.90;;;;;;5044165;28;19916;-76
2022/10/20 10:07:20;;;;;;;;;;;20.70;99.90;;;;;;5042256;28;20027;-76
2022/10/20 10:09:56;;;;;;;;;;;20.90;99.90;;;;;;5035468;28;20444;-77
2022/10/20 10:12:22;;;;;;;;;;;21.40;99.90;;;;;;5031439;28;19924;-77
2022/10/20 10:14:55;;;;;;;;;;;21.70;99.90;;;;;;5032879;28;20534;-76
2022/10/20 10:17:40;;;;;;;;;;;21.50;99.90;;;;;;5043490;28;20206;-77
2022/10/20 10:20:24;;;;;;;;;;;21.30;99.90;;;;;;5043778;28;20007;-76
2022/10/20 10:22:50;;;;;;;;;;;21.10;99.90;;;;;;5043360;28;19916;-77
2022/10/20 10:25:15;;;;;;;;;;;20.60;99.90;;;;;;5044295;28;19916;-78
2022/10/20 10:27:55;;;;;;;;;;;20.60;99.90;;;;;;5044379;28;19917;-76
2022/10/20 10:30:28;;;;;;;;;;;20.40;99.90;;;;;;5038220;28;19917;-78
2022/10/20 10:32:54;;;;;;;;;;;20.20;99.90;;;;;;5043259;28;19917;-80
2022/10/20 10:35:25;;;;;;;;;;;20.00;99.90;;;;;;5033035;28;19925;-78
2022/10/20 10:37:51;;;;;;;;;;;19.80;99.90;;;;;;5038682;28;20249;-78
2022/10/20 10:40:18;;;;;;;;;;;19.70;99.90;;;;;;5046394;28;20167;-77
2022/10/20 10:42:44;;;;;;;;;;;19.60;99.90;;;;;;5040749;28;20446;-77
2022/10/20 10:45:14;;;;;;;;;;;19.40;99.90;;;;;;5042838;28;20040;-81
2022/10/20 10:48:18;;;;;;;;;;;19.20;99.90;;;;;;5042586;28;19923;-79
2022/10/20 10:50:52;;;;;;;;;;;19.00;99.90;;;;;;5012670;28;19999;-79
2022/10/20 10:53:18;;;;;;;;;;;18.90;99.90;;;;;;5014556;28;19975;-78
2022/10/20 10:55:56;;;;;;;;;;;18.80;99.90;;;;;;5028400;28;19924;-77
2022/10/20 10:58:24;;;;;;;;;;;18.70;99.90;;;;;;5038189;28;19917;-76
2022/10/20 11:01:01;;;;;;;;;;;18.50;99.90;;;;;;5039616;28;20460;-77
2022/10/20 11:03:40;;;;;;;;;;;18.30;99.90;;;;;;5041299;28;19928;-77
2022/10/20 11:06:11;;;;;;;;;;;18.10;99.90;;;;;;5045952;28;20318;-78
2022/10/20 11:08:47;;;;;;;;;;;18.20;99.90;;;;;;5039999;28;19923;-76
2022/10/20 11:11:21;;;;;;;;;;;18.80;99.90;;;;;;5038509;28;19948;-77
2022/10/20 11:14:09;;;;;;;;;;;19.00;99.90;;;;;;5041470;28;19921;-78
2022/10/20 11:16:40;;;;;;;;;;;19.10;99.90;;;;;;5039957;28;20390;-77
2022/10/20 11:19:24;;;;;;;;;;;19.00;99.90;;;;;;5033375;28;19970;-77
2022/10/20 11:21:55;;;;;;;;;;;19.00;99.90;;;;;;5033738;28;20006;-77
2022/10/20 11:24:27;;;;;;;;;;;19.30;99.90;;;;;;5040999;28;19994;-76
2022/10/20 11:27:00;;;;;;;;;;;19.70;99.90;;;;;;5038524;28;19973;-76
2022/10/20 11:29:31;;;;;;;;;;;20.00;99.90;;;;;;5038216;28;20382;-76
2022/10/20 11:32:03;;;;;;;;;;;19.90;99.90;;;;;;5044639;28;19923;-74
2022/10/20 11:34:45;;;;;;;;;;;19.90;99.90;;;;;;5034454;28;19921;-76
2022/10/20 11:37:16;;;;;;;;;;;19.90;99.90;;;;;;5033987;28;20170;-77
2022/10/20 11:39:47;;;;;;;;;;;20.20;99.90;;;;;;5050420;28;19974;-75
2022/10/20 11:42:22;;;;;;;;;;;20.30;99.90;;;;;;5022639;28;19925;-75
2022/10/20 11:44:48;;;;;;;;;;;20.20;99.90;;;;;;5019871;28;20008;-76
2022/10/20 11:47:20;;;;;;;;;;;20.40;99.90;;;;;;5023359;28;19961;-77
2022/10/20 11:49:45;;;;;;;;;;;20.30;99.90;;;;;;5001741;28;19917;-75
2022/10/20 11:52:23;;;;;;;;;;;20.30;99.90;;;;;;5019222;28;20016;-76
2022/10/20 11:55:03;;;;;;;;;;;20.40;99.90;;;;;;5002856;28;19935;-74
2022/10/20 11:57:48;;;;;;;;;;;20.90;99.90;;;;;;5018858;28;20016;-75
2022/10/20 12:00:17;;;;;;;;;;;20.70;99.90;;;;;;5018744;28;20069;-75
2022/10/20 12:02:51;;;;;;;;;;;20.40;99.90;;;;;;5021405;28;20410;-74
2022/10/20 12:05:37;;;;;;;;;;;20.10;99.90;;;;;;5021879;28;20023;-75
2022/10/20 12:08:02;;;;;;;;;;;19.90;99.90;;;;;;5011108;28;20390;-77
2022/10/20 12:10:34;;;;;;;;;;;20.20;99.90;;;;;;5022234;28;19925;-78
2022/10/20 12:13:18;;;;;;;;;;;20.50;99.90;;;;;;5024244;28;20391;-78
2022/10/20 12:15:47;;;;;;;;;;;20.80;99.90;;;;;;5020790;28;20023;-80
2022/10/20 12:18:19;;;;;;;;;;;20.60;99.90;;;;;;5015355;28;19921;-76
2022/10/20 12:20:49;;;;;;;;;;;20.50;99.90;;;;;;5019848;28;20379;-77
2022/10/20 12:23:34;;;;;;;;;;;20.30;99.90;;;;;;5004606;28;20069;-77
2022/10/20 12:25:59;;;;;;;;;;;20.10;99.90;;;;;;5022214;28;19999;-78
2022/10/20 12:28:28;;;;;;;;;;;20.20;99.90;;;;;;5021651;28;20384;-73
2022/10/20 12:31:01;;;;;;;;;;;20.30;99.90;;;;;;5020767;28;19917;-74
2022/10/20 12:34:05;;;;;;;;;;;20.50;99.90;;;;;;5022232;28;20020;-75
2022/10/20 12:36:35;;;;;;;;;;;20.80;99.90;;;;;;4959850;28;20013;-74
2022/10/20 12:39:12;;;;;;;;;;;21.20;99.90;;;;;;4956223;28;19922;-75
2022/10/20 12:41:42;;;;;;;;;;;21.50;99.90;;;;;;5006362;28;19951;-77
2022/10/20 12:44:13;;;;;;;;;;;21.90;99.90;;;;;;5037727;28;20101;-76
2022/10/20 12:46:41;;;;;;;;;;;22.10;99.90;;;;;;5044592;28;20045;-77
2022/10/20 12:49:08;;;;;;;;;;;22.10;99.90;;;;;;5045558;28;20291;-77
2022/10/20 12:51:35;;;;;;;;;;;22.00;99.90;;;;;;5038500;28;19917;-78
2022/10/20 12:54:06;;;;;;;;;;;22.00;99.90;;;;;;5044520;28;20379;-77
2022/10/20 12:56:34;;;;;;;;;;;21.80;99.90;;;;;;5046996;28;19927;-75
2022/10/20 12:59:06;;;;;;;;;;;21.70;99.90;;;;;;5036793;28;19931;-77
2022/10/20 13:01:51;;;;;;;;;;;21.70;99.90;;;;;;5039193;28;19917;-77
2022/10/20 13:04:40;;;;;;;;;;;21.30;99.90;;;;;;5044467;28;19964;-77
2022/10/20 13:07:07;;;;;;;;;;;20.90;99.90;;;;;;5016376;28;20366;-77
2022/10/20 13:09:52;;;;;;;;;;;20.70;99.90;;;;;;5043736;28;19916;-78
2022/10/20 13:12:25;;;;;;;;;;;20.70;99.90;;;;;;5042570;28;19924;-77
2022/10/20 13:14:54;;;;;;;;;;;20.70;99.90;;;;;;5040197;28;19924;-78
2022/10/20 13:17:40;;;;;;;;;;;20.40;99.90;;;;;;5041765;28;19925;-78
2022/10/20 13:20:16;;;;;;;;;;;20.40;99.90;;;;;;5036736;28;19916;-78
2022/10/20 13:23:01;;;;;;;;;;;20.30;99.90;;;;;;5044026;28;19917;-78
2022/10/20 13:25:38;;;;;;;;;;;20.20;99.90;;;;;;5042490;28;19927;-76
2022/10/20 13:28:03;;;;;;;;;;;20.10;99.90;;;;;;5040984;28;20510;-79
2022/10/20 13:30:30;;;;;;;;;;;20.20;99.90;;;;;;5050632;28;20035;-79
2022/10/20 13:32:55;;;;;;;;;;;20.20;99.90;;;;;;5041403;28;19917;-79
2022/10/20 13:35:21;;;;;;;;;;;20.20;99.90;;;;;;5042383;28;19925;-77
2022/10/20 13:37:55;;;;;;;;;;;20.00;99.90;;;;;;5056470;28;20407;-78
2022/10/20 13:40:39;;;;;;;;;;;20.10;99.90;;;;;;5043787;28;19924;-79
2022/10/20 13:43:25;;;;;;;;;;;20.20;99.90;;;;;;5041868;28;19983;-80
2022/10/20 13:46:14;;;;;;;;;;;20.30;99.90;;;;;;5042179;28;19921;-78
2022/10/20 13:48:42;;;;;;;;;;;20.20;99.90;;;;;;5014236;28;19917;-75
2022/10/20 13:51:14;;;;;;;;;;;20.10;99.90;;;;;;5037882;28;19917;-87
2022/10/20 13:53:41;;;;;;;;;;;20.00;99.90;;;;;;5043836;28;19921;-82
2022/10/20 13:56:17;;;;;;;;;;;19.80;99.90;;;;;;5060759;28;20386;-88
2022/10/20 13:59:03;;;;;;;;;;;19.70;99.90;;;;;;5042274;28;20532;-82
2022/10/20 14:01:29;;;;;;;;;;;19.50;99.90;;;;;;5039579;28;19987;-84
2022/10/20 14:03:55;;;;;;;;;;;19.40;99.90;;;;;;5055658;28;19916;-82
2022/10/20 14:06:30;;;;;;;;;;;19.40;99.90;;;;;;5055695;28;20050;-86
2022/10/20 14:08:57;;;;;;;;;;;19.40;99.90;;;;;;5040807;28;20033;-84
2022/10/20 14:11:24;;;;;;;;;;;19.40;99.90;;;;;;5042446;28;19935;-85
2022/10/20 14:13:50;;;;;;;;;;;19.50;99.90;;;;;;5044026;28;20055;-80
2022/10/20 14:16:17;;;;;;;;;;;19.40;99.90;;;;;;5045717;28;19960;-89
2022/10/20 14:18:42;;;;;;;;;;;19.30;99.90;;;;;;5043627;28;19924;-83
2022/10/20 14:21:17;;;;;;;;;;;19.10;99.90;;;;;;5045025;28;20287;-86
2022/10/20 14:23:43;;;;;;;;;;;19.30;99.90;;;;;;5044062;28;19939;-80
2022/10/20 14:26:14;;;;;;;;;;;19.60;99.90;;;;;;5048540;28;19913;-84